Aviation Digital Data Service (ADDS)

Output produced by METARs form (1813 UTC 19 August 2019)
found at http://www.aviationweather.gov/metar/data/
 
LFML 191800Z AUTO 21005KT CAVOK 26/20 Q1017 NOSIG
TAF LFML 191400Z 1915/2021 20010KT 9999 FEW025 SCT110 BKN200 TX28/2013Z
TN22/2004Z 
     BECMG 1915/1916 26010KT 
     BECMG 1917/1919 VRB03KT 
     PROB40 
     TEMPO 1919/1921 SCT023 
     BECMG 2007/2009 26007KT 
     TEMPO 2009/2012 30015KT SCT046 
     BECMG 2012/2013 33020KT 
     TEMPO 2013/2021 32017G27KT